sensor_id;sensor_type;location;lat;lon;timestamp;pressure;altitude;pressure_sealevel;temperature;humidity
61571;BME280;47463;49.884;10.010;2022-09-20T00:00:01;102338;;;9.3;83
61571;BME280;47463;49.884;10.010;2022-09-20T00:05:01;102350;;;9.3;82
61571;BME280;47463;49.884;10.010;2022-09-20T00:10:01;102346;;;9.3;83
61571;BME280;47463;49.884;10.010;2022-09-20T00:15:01;102346;;;9.3;83
61571;BME280;47463;49.884;10.010;2022-09-20T00:20:01;102348;;;9.3;83
61571;BME280;47463;49.884;10.010;2022-09-20T00:25:01;102351;;;9.5;82
61571;BME280;47463;49.884;10.010;2022-09-20T00:30:01;102355;;;9.5;82
61571;BME280;47463;49.884;10.010;2022-09-20T00:35:01;102361;;;9.5;82
61571;BME280;47463;49.884;10.010;2022-09-20T00:40:01;102361;;;9.5;82
61571;BME280;47463;49.884;10.010;2022-09-20T00:45:01;102367;;;9.4;82
61571;BME280;47463;49.884;10.010;2022-09-20T00:50:03;102372;;;9.4;82
61571;BME280;47463;49.884;10.010;2022-09-20T00:55:01;102370;;;9.4;82
61571;BME280;47463;49.884;10.010;2022-09-20T01:00:02;102372;;;9.4;82
61571;BME280;47463;49.884;10.010;2022-09-20T01:05:01;102377;;;9.4;82
61571;BME280;47463;49.884;10.010;2022-09-20T01:10:01;102375;;;9.3;83
61571;BME280;47463;49.884;10.010;2022-09-20T01:15:01;102377;;;9.2;83
61571;BME280;47463;49.884;10.010;2022-09-20T01:20:07;102382;;;9.2;83
61571;BME280;47463;49.884;10.010;2022-09-20T01:25:03;102380;;;9.2;83
61571;BME280;47463;49.884;10.010;2022-09-20T01:30:03;102382;;;9.1;83
61571;BME280;47463;49.884;10.010;2022-09-20T01:35:01;102381;;;9.1;83
61571;BME280;47463;49.884;10.010;2022-09-20T01:40:02;102380;;;9;83
61571;BME280;47463;49.884;10.010;2022-09-20T01:45:02;102379;;;8.9;83
61571;BME280;47463;49.884;10.010;2022-09-20T01:50:02;102387;;;8.8;84
61571;BME280;47463;49.884;10.010;2022-09-20T02:00:02;102396;;;8.7;84
61571;BME280;47463;49.884;10.010;2022-09-20T02:05:11;102393;;;8.7;84
61571;BME280;47463;49.884;10.010;2022-09-20T02:10:05;102404;;;8.6;84
61571;BME280;47463;49.884;10.010;2022-09-20T02:15:02;102402;;;8.6;85
61571;BME280;47463;49.884;10.010;2022-09-20T02:20:05;102393;;;8.5;85
61571;BME280;47463;49.884;10.010;2022-09-20T02:25:03;102394;;;8.5;85
61571;BME280;47463;49.884;10.010;2022-09-20T02:30:05;102404;;;8.5;85
61571;BME280;47463;49.884;10.010;2022-09-20T02:35:06;102406;;;8.5;84
61571;BME280;47463;49.884;10.010;2022-09-20T02:40:05;102398;;;8.3;85
61571;BME280;47463;49.884;10.010;2022-09-20T02:45:01;102395;;;8.3;85
61571;BME280;47463;49.884;10.010;2022-09-20T02:50:04;102394;;;8.3;85
61571;BME280;47463;49.884;10.010;2022-09-20T02:55:02;102395;;;8.3;85
61571;BME280;47463;49.884;10.010;2022-09-20T03:00:02;102397;;;8.4;85
61571;BME280;47463;49.884;10.010;2022-09-20T03:05:04;102399;;;8.4;85
61571;BME280;47463;49.884;10.010;2022-09-20T03:10:05;102397;;;8.3;85
61571;BME280;47463;49.884;10.010;2022-09-20T03:15:05;102404;;;8.2;85
61571;BME280;47463;49.884;10.010;2022-09-20T03:20:12;102411.99999999999;;;8.1;85
61571;BME280;47463;49.884;10.010;2022-09-20T03:25:06;102423;;;8;85
61571;BME280;47463;49.884;10.010;2022-09-20T03:30:07;102424;;;7.9;85
61571;BME280;47463;49.884;10.010;2022-09-20T03:35:03;102426;;;7.8;85
61571;BME280;47463;49.884;10.010;2022-09-20T03:40:05;102423;;;7.8;86
61571;BME280;47463;49.884;10.010;2022-09-20T03:45:05;102419;;;7.8;86
61571;BME280;47463;49.884;10.010;2022-09-20T03:50:05;102414.00000000001;;;7.8;86
61571;BME280;47463;49.884;10.010;2022-09-20T03:55:05;102421;;;7.7;86
61571;BME280;47463;49.884;10.010;2022-09-20T04:00:05;102419;;;7.7;86
61571;BME280;47463;49.884;10.010;2022-09-20T04:05:01;102417;;;7.6;86
61571;BME280;47463;49.884;10.010;2022-09-20T04:10:05;102421;;;7.6;86
61571;BME280;47463;49.884;10.010;2022-09-20T04:15:04;102421;;;7.6;86
61571;BME280;47463;49.884;10.010;2022-09-20T04:20:01;102427;;;7.6;86
61571;BME280;47463;49.884;10.010;2022-09-20T04:25:02;102432;;;7.6;86
61571;BME280;47463;49.884;10.010;2022-09-20T04:30:02;102436.99999999999;;;7.5;86
61571;BME280;47463;49.884;10.010;2022-09-20T04:35:02;102433;;;7.5;86
61571;BME280;47463;49.884;10.010;2022-09-20T04:40:04;102440.00000000001;;;7.5;86
61571;BME280;47463;49.884;10.010;2022-09-20T04:45:07;102444;;;7.7;86
61571;BME280;47463;49.884;10.010;2022-09-20T04:50:09;102450;;;7.8;86
61571;BME280;47463;49.884;10.010;2022-09-20T04:55:23;102459.99999999999;;;7.8;86
61571;BME280;47463;49.884;10.010;2022-09-20T05:00:02;102465.00000000001;;;7.9;86
61571;BME280;47463;49.884;10.010;2022-09-20T05:05:15;102474;;;8;86
61571;BME280;47463;49.884;10.010;2022-09-20T05:10:08;102483;;;8.1;86
61571;BME280;47463;49.884;10.010;2022-09-20T05:15:04;102488.00000000001;;;8.1;86
61571;BME280;47463;49.884;10.010;2022-09-20T05:20:05;102493;;;8.2;86
61571;BME280;47463;49.884;10.010;2022-09-20T05:25:04;102495;;;8.2;86
61571;BME280;47463;49.884;10.010;2022-09-20T05:30:02;102498;;;8.2;85
61571;BME280;47463;49.884;10.010;2022-09-20T05:35:02;102502;;;8.3;85
61571;BME280;47463;49.884;10.010;2022-09-20T05:40:02;102508.99999999999;;;8.3;85
61571;BME280;47463;49.884;10.010;2022-09-20T05:45:04;102510.99999999999;;;8.3;85
61571;BME280;47463;49.884;10.010;2022-09-20T05:50:04;102518;;;8.3;85
61571;BME280;47463;49.884;10.010;2022-09-20T05:55:10;102526;;;8.4;85
61571;BME280;47463;49.884;10.010;2022-09-20T06:00:02;102522;;;8.4;85
61571;BME280;47463;49.884;10.010;2022-09-20T06:05:02;102532;;;8.5;85
61571;BME280;47463;49.884;10.010;2022-09-20T06:10:12;102533.99999999999;;;8.5;85
61571;BME280;47463;49.884;10.010;2022-09-20T06:15:02;102530;;;8.5;85
61571;BME280;47463;49.884;10.010;2022-09-20T06:20:07;102530;;;8.6;85
61571;BME280;47463;49.884;10.010;2022-09-20T06:25:02;102536.99999999999;;;8.6;84
61571;BME280;47463;49.884;10.010;2022-09-20T06:30:01;102539.00000000001;;;8.7;84
61571;BME280;47463;49.884;10.010;2022-09-20T06:35:01;102524;;;9.1;84
61571;BME280;47463;49.884;10.010;2022-09-20T06:40:02;102521;;;9.4;83
61571;BME280;47463;49.884;10.010;2022-09-20T06:45:01;102511.99999999999;;;9.5;82
61571;BME280;47463;49.884;10.010;2022-09-20T06:50:01;102508.99999999999;;;9.4;82
61571;BME280;47463;49.884;10.010;2022-09-20T06:55:01;102499;;;9.5;82
61571;BME280;47463;49.884;10.010;2022-09-20T07:00:01;102517;;;9.4;82
61571;BME280;47463;49.884;10.010;2022-09-20T07:05:01;102525;;;9.7;82
61571;BME280;47463;49.884;10.010;2022-09-20T07:10:01;102507;;;10;81
61571;BME280;47463;49.884;10.010;2022-09-20T07:15:01;102498;;;10.2;80
61571;BME280;47463;49.884;10.010;2022-09-20T07:20:01;102471;;;9.9;80
61571;BME280;47463;49.884;10.010;2022-09-20T07:25:01;102477;;;9.7;80
61571;BME280;47463;49.884;10.010;2022-09-20T07:30:01;102493;;;9.7;81
61571;BME280;47463;49.884;10.010;2022-09-20T07:35:01;102482;;;9.8;80
61571;BME280;47463;49.884;10.010;2022-09-20T07:40:01;102474;;;9.9;80
61571;BME280;47463;49.884;10.010;2022-09-20T07:45:01;102472;;;9.9;80
61571;BME280;47463;49.884;10.010;2022-09-20T07:50:01;102482;;;9.9;80
61571;BME280;47463;49.884;10.010;2022-09-20T07:55:01;102488.00000000001;;;9.9;79
61571;BME280;47463;49.884;10.010;2022-09-20T08:00:01;102483.99999999999;;;10;79
61571;BME280;47463;49.884;10.010;2022-09-20T08:05:01;102481;;;10.1;79
61571;BME280;47463;49.884;10.010;2022-09-20T08:10:01;102485.99999999999;;;10.2;78
61571;BME280;47463;49.884;10.010;2022-09-20T08:15:01;102490.00000000001;;;10.3;78
61571;BME280;47463;49.884;10.010;2022-09-20T08:20:01;102483;;;10.3;77
61571;BME280;47463;49.884;10.010;2022-09-20T08:25:01;102495;;;10.3;77
61571;BME280;47463;49.884;10.010;2022-09-20T08:30:01;102499;;;10.3;77
61571;BME280;47463;49.884;10.010;2022-09-20T08:35:01;102495;;;10.4;77
61571;BME280;47463;49.884;10.010;2022-09-20T08:40:01;102494;;;10.5;77
61571;BME280;47463;49.884;10.010;2022-09-20T08:45:01;102484.99999999999;;;10.5;77
61571;BME280;47463;49.884;10.010;2022-09-20T08:50:02;102481;;;10.5;76
61571;BME280;47463;49.884;10.010;2022-09-20T08:55:01;102481;;;10.5;76
61571;BME280;47463;49.884;10.010;2022-09-20T09:00:02;102486.99999999999;;;10.6;76
61571;BME280;47463;49.884;10.010;2022-09-20T09:05:01;102480;;;10.7;75
61571;BME280;47463;49.884;10.010;2022-09-20T09:10:01;102477;;;10.7;75
61571;BME280;47463;49.884;10.010;2022-09-20T09:15:02;102477;;;10.8;74
61571;BME280;47463;49.884;10.010;2022-09-20T09:20:06;102479;;;10.9;75
61571;BME280;47463;49.884;10.010;2022-09-20T09:25:26;102488.00000000001;;;10.9;74
61571;BME280;47463;49.884;10.010;2022-09-20T09:30:01;102492;;;11.1;74
61571;BME280;47463;49.884;10.010;2022-09-20T09:35:19;102496;;;11.2;73
61571;BME280;47463;49.884;10.010;2022-09-20T09:40:05;102480;;;11.6;72
61571;BME280;47463;49.884;10.010;2022-09-20T09:45:09;102478;;;11.7;72
61571;BME280;47463;49.884;10.010;2022-09-20T09:50:01;102467;;;11.8;71
61571;BME280;47463;49.884;10.010;2022-09-20T09:55:01;102467;;;11.8;71
61571;BME280;47463;49.884;10.010;2022-09-20T10:00:03;102445;;;11.8;71
61571;BME280;47463;49.884;10.010;2022-09-20T10:05:02;102451;;;11.6;69
61571;BME280;47463;49.884;10.010;2022-09-20T10:10:02;102455;;;11.9;70
61571;BME280;47463;49.884;10.010;2022-09-20T10:15:04;102448;;;11.7;70
61571;BME280;47463;49.884;10.010;2022-09-20T10:20:03;102454;;;11.7;70
61571;BME280;47463;49.884;10.010;2022-09-20T10:25:02;102449;;;11.9;71
61571;BME280;47463;49.884;10.010;2022-09-20T10:30:02;102450;;;12;72
61571;BME280;47463;49.884;10.010;2022-09-20T10:35:04;102446;;;12;72
61571;BME280;47463;49.884;10.010;2022-09-20T10:40:02;102447;;;12;69
61571;BME280;47463;49.884;10.010;2022-09-20T10:45:03;102439.00000000001;;;12;69
61571;BME280;47463;49.884;10.010;2022-09-20T10:50:02;102440.00000000001;;;12.2;70
61571;BME280;47463;49.884;10.010;2022-09-20T10:55:03;102440.00000000001;;;12.2;70
61571;BME280;47463;49.884;10.010;2022-09-20T11:00:03;102445;;;12.3;70
61571;BME280;47463;49.884;10.010;2022-09-20T11:05:07;102457;;;12.2;70
61571;BME280;47463;49.884;10.010;2022-09-20T11:10:02;102455;;;12.3;70
61571;BME280;47463;49.884;10.010;2022-09-20T11:15:02;102455;;;12.3;70
61571;BME280;47463;49.884;10.010;2022-09-20T11:20:02;102457;;;12.4;71
61571;BME280;47463;49.884;10.010;2022-09-20T11:25:02;102458.99999999999;;;12.5;70
61571;BME280;47463;49.884;10.010;2022-09-20T11:30:02;102459.99999999999;;;12.7;70
61571;BME280;47463;49.884;10.010;2022-09-20T11:35:02;102464.00000000001;;;12.9;69
61571;BME280;47463;49.884;10.010;2022-09-20T11:40:03;102479;;;12.6;70
61571;BME280;47463;49.884;10.010;2022-09-20T11:45:01;102484.99999999999;;;11.8;74
61571;BME280;47463;49.884;10.010;2022-09-20T11:50:07;102497;;;11.6;76
61571;BME280;47463;49.884;10.010;2022-09-20T11:55:05;102489.00000000001;;;11.5;76
61571;BME280;47463;49.884;10.010;2022-09-20T12:00:02;102489.00000000001;;;11.5;77
61571;BME280;47463;49.884;10.010;2022-09-20T12:05:02;102486.99999999999;;;11.8;76
61571;BME280;47463;49.884;10.010;2022-09-20T12:10:02;102485.99999999999;;;12.5;73
61571;BME280;47463;49.884;10.010;2022-09-20T12:15:01;102465.00000000001;;;12.7;72
61571;BME280;47463;49.884;10.010;2022-09-20T12:20:01;102461.99999999999;;;12.6;71
61571;BME280;47463;49.884;10.010;2022-09-20T12:26:05;102475;;;12.5;72
61571;BME280;47463;49.884;10.010;2022-09-20T12:30:03;102483;;;12.4;73
61571;BME280;47463;49.884;10.010;2022-09-20T12:35:01;102485.99999999999;;;12;76
61571;BME280;47463;49.884;10.010;2022-09-20T12:40:01;102485.99999999999;;;11.5;77
61571;BME280;47463;49.884;10.010;2022-09-20T12:45:02;102490.00000000001;;;11.3;77
61571;BME280;47463;49.884;10.010;2022-09-20T12:50:01;102488.00000000001;;;11.4;77
61571;BME280;47463;49.884;10.010;2022-09-20T12:55:01;102480;;;12;75
61571;BME280;47463;49.884;10.010;2022-09-20T13:00:02;102465.00000000001;;;13.4;72
61571;BME280;47463;49.884;10.010;2022-09-20T13:05:01;102480;;;13.4;72
61571;BME280;47463;49.884;10.010;2022-09-20T13:10:02;102475;;;12.9;72
61571;BME280;47463;49.884;10.010;2022-09-20T13:15:01;102466.00000000001;;;12.4;72
61571;BME280;47463;49.884;10.010;2022-09-20T13:20:01;102457;;;12.2;72
61571;BME280;47463;49.884;10.010;2022-09-20T13:25:02;102449;;;12.4;71
61571;BME280;47463;49.884;10.010;2022-09-20T13:30:13;102449;;;13;70
61571;BME280;47463;49.884;10.010;2022-09-20T13:35:04;102455;;;12.9;69
61571;BME280;47463;49.884;10.010;2022-09-20T13:40:01;102456;;;13;69
61571;BME280;47463;49.884;10.010;2022-09-20T13:45:01;102464.00000000001;;;13.4;69
61571;BME280;47463;49.884;10.010;2022-09-20T13:50:06;102454;;;13.8;67
61571;BME280;47463;49.884;10.010;2022-09-20T13:55:18;102449;;;14.1;66
61571;BME280;47463;49.884;10.010;2022-09-20T14:00:01;102451;;;14.2;66
61571;BME280;47463;49.884;10.010;2022-09-20T14:05:02;102472;;;13.9;67
61571;BME280;47463;49.884;10.010;2022-09-20T14:10:01;102470;;;13.2;68
61571;BME280;47463;49.884;10.010;2022-09-20T14:15:02;102469;;;12.6;69
61571;BME280;47463;49.884;10.010;2022-09-20T14:20:01;102472;;;12.3;70
61571;BME280;47463;49.884;10.010;2022-09-20T14:25:02;102471;;;12.1;70
61571;BME280;47463;49.884;10.010;2022-09-20T14:30:01;102474;;;12;70
61571;BME280;47463;49.884;10.010;2022-09-20T14:35:02;102472;;;11.9;71
61571;BME280;47463;49.884;10.010;2022-09-20T14:40:02;102472;;;11.7;71
61571;BME280;47463;49.884;10.010;2022-09-20T14:45:01;102461.99999999999;;;11.5;72
61571;BME280;47463;49.884;10.010;2022-09-20T14:50:01;102458;;;11.5;73
61571;BME280;47463;49.884;10.010;2022-09-20T14:55:01;102463.00000000001;;;11.5;73
61571;BME280;47463;49.884;10.010;2022-09-20T15:00:03;102458.99999999999;;;11.5;73
61571;BME280;47463;49.884;10.010;2022-09-20T15:05:01;102456;;;11.5;72
61571;BME280;47463;49.884;10.010;2022-09-20T15:10:01;102458.99999999999;;;11.6;73
61571;BME280;47463;49.884;10.010;2022-09-20T15:15:01;102459.99999999999;;;11.6;73
61571;BME280;47463;49.884;10.010;2022-09-20T15:20:01;102463.00000000001;;;11.8;72
61571;BME280;47463;49.884;10.010;2022-09-20T15:25:01;102469;;;12;72
61571;BME280;47463;49.884;10.010;2022-09-20T15:30:01;102460.99999999999;;;12.2;70
61571;BME280;47463;49.884;10.010;2022-09-20T15:35:01;102456;;;12.4;69
61571;BME280;47463;49.884;10.010;2022-09-20T15:40:01;102456;;;12.5;68
61571;BME280;47463;49.884;10.010;2022-09-20T15:45:01;102467;;;12.5;68
61571;BME280;47463;49.884;10.010;2022-09-20T15:50:01;102467;;;12.5;69
61571;BME280;47463;49.884;10.010;2022-09-20T15:55:01;102469;;;12.7;67
61571;BME280;47463;49.884;10.010;2022-09-20T16:00:01;102471;;;12.6;67
61571;BME280;47463;49.884;10.010;2022-09-20T16:05:01;102476;;;12.8;68
61571;BME280;47463;49.884;10.010;2022-09-20T16:10:01;102488.00000000001;;;12.7;69
61571;BME280;47463;49.884;10.010;2022-09-20T16:15:01;102490.00000000001;;;12.5;70
61571;BME280;47463;49.884;10.010;2022-09-20T16:20:01;102488.00000000001;;;12.2;71
61571;BME280;47463;49.884;10.010;2022-09-20T16:25:01;102491.00000000001;;;12.2;70
61571;BME280;47463;49.884;10.010;2022-09-20T16:30:01;102498;;;11.9;72
61571;BME280;47463;49.884;10.010;2022-09-20T16:35:01;102516.00000000001;;;11.4;74
61571;BME280;47463;49.884;10.010;2022-09-20T16:40:01;102522;;;11.1;75
61571;BME280;47463;49.884;10.010;2022-09-20T16:45:01;102524;;;10.9;75
61571;BME280;47463;49.884;10.010;2022-09-20T16:50:01;102525;;;10.8;76
61571;BME280;47463;49.884;10.010;2022-09-20T16:55:01;102528;;;10.6;76
61571;BME280;47463;49.884;10.010;2022-09-20T17:00:01;102528;;;10.6;76
61571;BME280;47463;49.884;10.010;2022-09-20T17:05:01;102545;;;10.3;78
61571;BME280;47463;49.884;10.010;2022-09-20T17:10:01;102547;;;10.2;78
61571;BME280;47463;49.884;10.010;2022-09-20T17:15:01;102557;;;10.1;79
61571;BME280;47463;49.884;10.010;2022-09-20T17:20:01;102566.00000000001;;;10.1;79
61571;BME280;47463;49.884;10.010;2022-09-20T17:25:01;102579;;;10.1;78
61571;BME280;47463;49.884;10.010;2022-09-20T17:30:01;102588.00000000001;;;10;79
61571;BME280;47463;49.884;10.010;2022-09-20T17:35:01;102591.00000000001;;;9.9;79
61571;BME280;47463;49.884;10.010;2022-09-20T17:40:01;102583;;;9.7;80
61571;BME280;47463;49.884;10.010;2022-09-20T17:45:01;102593;;;9.5;81
61571;BME280;47463;49.884;10.010;2022-09-20T17:50:01;102595;;;9.6;81
61571;BME280;47463;49.884;10.010;2022-09-20T17:55:01;102599;;;9.7;80
61571;BME280;47463;49.884;10.010;2022-09-20T18:00:01;102605;;;9.6;80
61571;BME280;47463;49.884;10.010;2022-09-20T18:05:01;102609.99999999999;;;9.5;80
61571;BME280;47463;49.884;10.010;2022-09-20T18:10:01;102626;;;9.4;81
61571;BME280;47463;49.884;10.010;2022-09-20T18:15:01;102634.99999999999;;;9.3;81
61571;BME280;47463;49.884;10.010;2022-09-20T18:20:01;102641.00000000001;;;9.3;81
61571;BME280;47463;49.884;10.010;2022-09-20T18:25:01;102659.99999999999;;;9.3;81
61571;BME280;47463;49.884;10.010;2022-09-20T18:30:01;102666.00000000001;;;9.2;81
61571;BME280;47463;49.884;10.010;2022-09-20T18:35:01;102673;;;9.2;81
61571;BME280;47463;49.884;10.010;2022-09-20T18:40:01;102682;;;9.2;81
61571;BME280;47463;49.884;10.010;2022-09-20T18:45:01;102693;;;9.2;81
61571;BME280;47463;49.884;10.010;2022-09-20T18:50:01;102691.00000000001;;;9.1;81
61571;BME280;47463;49.884;10.010;2022-09-20T18:55:01;102702;;;9.1;82
61571;BME280;47463;49.884;10.010;2022-09-20T19:00:01;102705;;;9;82
61571;BME280;47463;49.884;10.010;2022-09-20T19:05:05;102704;;;8.9;82
61571;BME280;47463;49.884;10.010;2022-09-20T19:10:02;102719;;;8.9;82
61571;BME280;47463;49.884;10.010;2022-09-20T19:15:04;102722;;;8.9;82
61571;BME280;47463;49.884;10.010;2022-09-20T19:20:01;102733;;;8.9;82
61571;BME280;47463;49.884;10.010;2022-09-20T19:25:09;102733;;;9;81
61571;BME280;47463;49.884;10.010;2022-09-20T19:30:01;102741.00000000001;;;9;81
61571;BME280;47463;49.884;10.010;2022-09-20T19:35:01;102743;;;9;81
61571;BME280;47463;49.884;10.010;2022-09-20T19:40:06;102750;;;8.9;81
61571;BME280;47463;49.884;10.010;2022-09-20T19:45:02;102747;;;8.7;81
61571;BME280;47463;49.884;10.010;2022-09-20T19:50:02;102753;;;8.6;82
61571;BME280;47463;49.884;10.010;2022-09-20T19:55:01;102758;;;8.7;82
61571;BME280;47463;49.884;10.010;2022-09-20T20:00:01;102759.99999999999;;;8.7;82
61571;BME280;47463;49.884;10.010;2022-09-20T20:05:01;102760.99999999999;;;8.6;82
61571;BME280;47463;49.884;10.010;2022-09-20T20:10:03;102761.99999999999;;;8.5;83
61571;BME280;47463;49.884;10.010;2022-09-20T20:15:03;102767;;;8.4;83
61571;BME280;47463;49.884;10.010;2022-09-20T20:20:05;102773;;;8.4;83
61571;BME280;47463;49.884;10.010;2022-09-20T20:25:01;102776;;;8.3;83
61571;BME280;47463;49.884;10.010;2022-09-20T20:30:01;102780;;;8.1;83
61571;BME280;47463;49.884;10.010;2022-09-20T20:35:01;102779;;;8;83
61571;BME280;47463;49.884;10.010;2022-09-20T20:40:01;102773;;;7.8;84
61571;BME280;47463;49.884;10.010;2022-09-20T20:45:01;102783.99999999999;;;7.8;84
61571;BME280;47463;49.884;10.010;2022-09-20T20:50:01;102794;;;7.7;85
61571;BME280;47463;49.884;10.010;2022-09-20T20:55:01;102799;;;7.8;85
61571;BME280;47463;49.884;10.010;2022-09-20T21:00:01;102802;;;7.8;85
61571;BME280;47463;49.884;10.010;2022-09-20T21:05:01;102799;;;7.8;85
61571;BME280;47463;49.884;10.010;2022-09-20T21:10:01;102803;;;7.8;85
61571;BME280;47463;49.884;10.010;2022-09-20T21:15:01;102814.00000000001;;;7.8;85
61571;BME280;47463;49.884;10.010;2022-09-20T21:20:01;102811.99999999999;;;7.7;85
61571;BME280;47463;49.884;10.010;2022-09-20T21:25:01;102826;;;7.5;85
61571;BME280;47463;49.884;10.010;2022-09-20T21:30:01;102824;;;7.4;85
61571;BME280;47463;49.884;10.010;2022-09-20T21:35:01;102824;;;7.3;85
61571;BME280;47463;49.884;10.010;2022-09-20T21:40:01;102831;;;7.2;86
61571;BME280;47463;49.884;10.010;2022-09-20T21:45:01;102834.99999999999;;;7.2;86
61571;BME280;47463;49.884;10.010;2022-09-20T21:50:01;102848;;;7.2;86
61571;BME280;47463;49.884;10.010;2022-09-20T21:55:01;102853;;;7.2;86
61571;BME280;47463;49.884;10.010;2022-09-20T22:00:01;102846;;;7;86
61571;BME280;47463;49.884;10.010;2022-09-20T22:05:01;102836.99999999999;;;6.9;86
61571;BME280;47463;49.884;10.010;2022-09-20T22:10:01;102841.00000000001;;;6.8;86
61571;BME280;47463;49.884;10.010;2022-09-20T22:15:01;102844;;;6.7;86
61571;BME280;47463;49.884;10.010;2022-09-20T22:20:01;102855;;;6.6;86
61571;BME280;47463;49.884;10.010;2022-09-20T22:25:01;102857;;;6.6;87
61571;BME280;47463;49.884;10.010;2022-09-20T22:30:01;102855;;;6.6;87
61571;BME280;47463;49.884;10.010;2022-09-20T22:35:01;102861.99999999999;;;6.6;87
61571;BME280;47463;49.884;10.010;2022-09-20T22:40:01;102857;;;6.5;87
61571;BME280;47463;49.884;10.010;2022-09-20T22:45:01;102857;;;6.4;87
61571;BME280;47463;49.884;10.010;2022-09-20T22:50:01;102849;;;6.4;87
61571;BME280;47463;49.884;10.010;2022-09-20T22:55:01;102845;;;6.5;87
61571;BME280;47463;49.884;10.010;2022-09-20T23:00:01;102852;;;6.4;87
61571;BME280;47463;49.884;10.010;2022-09-20T23:05:01;102857;;;6.4;87
61571;BME280;47463;49.884;10.010;2022-09-20T23:10:01;102858.99999999999;;;6.5;87
61571;BME280;47463;49.884;10.010;2022-09-20T23:15:01;102866.00000000001;;;6.4;87
61571;BME280;47463;49.884;10.010;2022-09-20T23:20:01;102869;;;6.5;87
61571;BME280;47463;49.884;10.010;2022-09-20T23:25:01;102874;;;6.4;86
61571;BME280;47463;49.884;10.010;2022-09-20T23:30:01;102880;;;6.3;86
61571;BME280;47463;49.884;10.010;2022-09-20T23:35:01;102876;;;6.2;86
61571;BME280;47463;49.884;10.010;2022-09-20T23:40:01;102865.00000000001;;;6.2;87
61571;BME280;47463;49.884;10.010;2022-09-20T23:45:01;102867;;;6.2;87
61571;BME280;47463;49.884;10.010;2022-09-20T23:50:01;102869;;;6.1;86
61571;BME280;47463;49.884;10.010;2022-09-20T23:55:01;102877;;;5.9;86
